Halsey, OR (97348)

7:34 PM PST on February 12, 2016 (GMT -0800)
Lake Creek /I-5 | | Change Station
CLOSE
Current Station
Personal Weather Station
Location: Halsey, OR
Elevation: 299 ft
Nearby Weather Stations

Elev 299 ft 44.36 °N, 123.06 °W | Updated 6 minutes ago

Partly Cloudy
Partly Cloudy
46.9 °F
Feels Like 46 °F
N
3.7
Wind Variable Wind from South

Today
High -- | Low -- °F
--% Chance of Precip.
Yesterday
High -- | Low -- °F
Precip. -- in
Pressure 30.27 in
Visibility 10.0 miles
Clouds Clear
Windchill 46 °F
Dew Point 44 °F
Humidity 90%
Rainfall 0.35 in
Snow Depth Not available.
7:17 AM 5:36 PM
Waxing Crescent, 26% visible
METAR KCVO 130315Z 25003KT 10SM CLR 09/07 A3027 RMK AO1
Pressure 30.27 in
Visibility 10.0 miles
Clouds Clear
Windchill 46 °F
Dew Point 44 °F
Humidity 90%
Rainfall 0.35 in
Snow Depth Not available.
7:17 AM 5:36 PM
Waxing Crescent, 26% visible
METAR KCVO 130315Z 25003KT 10SM CLR 09/07 A3027 RMK AO1

10-Day Weather Forecast

Almanac

Astronomy

Feb. 12, 2016 Rise Set
Actual Time
Civil Twilight
Nautical Twilight
Astronomical Twilight
Moon
Length of Visible Light
Length of Day
Tomorrow will be .
, % of the Moon is Illuminated

Today's Extremes

State Highs State Lows

Community

WunderPhotos

Upload Photos

1,892,492 photos uploaded!

WunderBlog® & News

Nearby

Air Quality

  Air Quality AQ Index Pollutant
Not available.

Snow Depth

Station Depth Elevation

Earthquake Activity

City Distance Mag. Time & Date
Minimum magnitude displayed is 2.5.

Coastal Water Temperatures

Place Temperature

Stations

Nearby Weather Stations

Station Location Temp. Windchill Dew Point Humidity Wind Precip. Elev Updated Type
                   

Watches & Warnings

There are currently no watches in effect.